Arapahoe, Colorado
Current Conditions -  °F | °C
As of 1:53 PM on Thursday 27 Nov 2014 (Local Time) from KITR Reporting Station
Clear Clear  
Wind Chill: 64°   Ceiling: Unl
Heat Index: 64°   Visibility: 10mi
Dew Point: 24°   Wind: 14mph
Humidity: 22%   Direction: 230°SW
Pressure: 30.1"   Gusts: NA
Location:  38.85°N, 102.18°W
Report Text: KITR 272053Z AUTO 23012KT 10SM CLR 18/M04 A3010 RMK AO2 SLP184 T01781044 56027
Loading
Personal Weather Stations






























Interactive Weather Map New forecast layout! Learn more

10-Day Weather Forecast

Advertisements
Track Severe Weather on mobile